Time;durP1;ratioP1;P1;durP2;ratioP2;P2;SDS_P1;SDS_P2;PMS_P1;PMS_P2;Temp;Humidity;BMP_temperature;BMP_pressure;BME280_temperature;BME280_humidity;BME280_pressure;Samples;Min_cycle;Max_cycle;Signal;HPM_P1;HPM_P2
2023/07/23 00:01:24;;;;;;;6.15;4.45;;;19.60;99.90;;;;;;4956673;28;20090;-78
2023/07/23 00:03:50;;;;;;;8.23;5.07;;;19.60;99.90;;;;;;4956455;28;20027;-74
2023/07/23 00:06:16;;;;;;;8.18;4.75;;;19.60;99.90;;;;;;4955596;28;20031;-77
2023/07/23 00:08:42;;;;;;;7.38;4.18;;;19.60;99.90;;;;;;4956722;28;20039;-77
2023/07/23 00:11:08;;;;;;;8.82;4.25;;;19.60;99.90;;;;;;4955895;29;20500;-75
2023/07/23 00:13:34;;;;;;;7.05;4.20;;;19.70;99.90;;;;;;4956597;28;20232;-76
2023/07/23 00:16:00;;;;;;;9.98;4.75;;;19.70;99.90;;;;;;4956022;28;20134;-74
2023/07/23 00:18:26;;;;;;;7.50;4.25;;;19.70;99.90;;;;;;4956424;28;20477;-72
2023/07/23 00:20:52;;;;;;;7.68;4.45;;;19.80;99.90;;;;;;4956240;28;20033;-75
2023/07/23 00:23:17;;;;;;;8.48;4.95;;;19.80;99.90;;;;;;4956092;28;20027;-76
2023/07/23 00:25:43;;;;;;;8.23;4.88;;;19.90;99.90;;;;;;4956553;28;20035;-76
2023/07/23 00:28:09;;;;;;;10.77;5.30;;;19.90;99.90;;;;;;4955420;28;20082;-76
2023/07/23 00:30:35;;;;;;;11.18;5.00;;;19.90;99.90;;;;;;4955138;28;20087;-76
2023/07/23 00:33:01;;;;;;;10.48;5.07;;;19.90;99.90;;;;;;4956139;29;20038;-76
2023/07/23 00:35:28;;;;;;;9.80;4.90;;;19.80;99.90;;;;;;4956261;28;20400;-75
2023/07/23 00:37:54;;;;;;;9.18;4.55;;;19.80;99.90;;;;;;4955747;28;20034;-76
2023/07/23 00:40:20;;;;;;;9.68;4.97;;;19.70;99.90;;;;;;4954764;29;20386;-76
2023/07/23 00:42:46;;;;;;;13.85;5.13;;;19.70;99.90;;;;;;4954727;28;20031;-73
2023/07/23 00:45:12;;;;;;;9.63;4.88;;;19.70;99.90;;;;;;4954544;28;20031;-72
2023/07/23 00:47:38;;;;;;;10.07;5.00;;;19.80;99.90;;;;;;4955916;28;20019;-74
2023/07/23 00:50:05;;;;;;;7.45;4.90;;;19.80;99.90;;;;;;4954938;29;20119;-76
2023/07/23 00:52:31;;;;;;;12.15;4.75;;;19.70;99.90;;;;;;4956111;28;20023;-76
2023/07/23 00:54:57;;;;;;;9.10;4.88;;;19.70;99.90;;;;;;4955150;28;20039;-76
2023/07/23 00:57:23;;;;;;;8.35;4.18;;;19.80;99.90;;;;;;4954292;28;20536;-76
2023/07/23 00:59:48;;;;;;;10.32;5.15;;;19.80;99.90;;;;;;4955822;28;20046;-75
2023/07/23 01:02:14;;;;;;;10.05;5.30;;;19.80;99.90;;;;;;4954839;28;20377;-75
2023/07/23 01:04:40;;;;;;;8.43;4.80;;;19.90;99.90;;;;;;4954014;28;20046;-73
2023/07/23 01:07:07;;;;;;;7.32;5.20;;;19.90;99.90;;;;;;4948936;28;20136;-76
2023/07/23 01:09:35;;;;;;;9.20;4.53;;;19.90;99.90;;;;;;4954032;28;20034;-73
2023/07/23 01:12:02;;;;;;;10.70;5.85;;;20.00;99.90;;;;;;4953157;28;20056;-72
2023/07/23 01:14:29;;;;;;;8.57;5.22;;;20.00;99.90;;;;;;4954082;28;20499;-74
2023/07/23 01:16:57;;;;;;;8.82;5.32;;;20.00;99.90;;;;;;4955612;28;20063;-73
2023/07/23 01:19:26;;;;;;;11.55;5.07;;;20.00;99.90;;;;;;4955700;28;20066;-73
2023/07/23 01:22:00;;;;;;;9.75;5.35;;;20.10;99.90;;;;;;4953865;28;20027;-75
2023/07/23 01:24:26;;;;;;;12.38;5.25;;;20.10;99.90;;;;;;4955301;28;20102;-76
2023/07/23 01:26:51;;;;;;;12.55;5.60;;;20.00;99.90;;;;;;4953654;28;20127;-75
2023/07/23 01:29:17;;;;;;;12.07;6.25;;;20.00;99.90;;;;;;4954003;28;20090;-73
2023/07/23 01:31:43;;;;;;;12.60;5.63;;;19.90;99.90;;;;;;4954981;28;20035;-76
2023/07/23 01:34:09;;;;;;;15.80;6.28;;;19.90;99.90;;;;;;4955209;28;20426;-72
2023/07/23 01:36:35;;;;;;;13.70;5.60;;;19.80;99.90;;;;;;4954647;28;20481;-76
2023/07/23 01:39:00;;;;;;;9.43;5.25;;;19.80;99.90;;;;;;4955026;28;20089;-74
2023/07/23 01:41:27;;;;;;;9.30;5.25;;;19.80;99.90;;;;;;4949919;28;20035;-73
2023/07/23 01:43:53;;;;;;;11.15;5.55;;;19.70;99.90;;;;;;4952981;28;20070;-74
2023/07/23 01:46:18;;;;;;;10.88;5.78;;;19.70;99.90;;;;;;4954978;28;20047;-76
2023/07/23 01:48:44;;;;;;;10.10;4.93;;;19.70;99.90;;;;;;4948720;28;20019;-75
2023/07/23 01:51:11;;;;;;;10.95;5.65;;;19.70;99.90;;;;;;4954683;28;20027;-74
2023/07/23 01:53:37;;;;;;;11.45;5.90;;;19.70;99.90;;;;;;4953131;29;20137;-74
2023/07/23 01:56:03;;;;;;;11.68;5.30;;;19.70;99.90;;;;;;4937316;29;20125;-75
2023/07/23 01:58:29;;;;;;;9.77;5.20;;;19.60;99.90;;;;;;4952866;28;20031;-75
2023/07/23 02:01:00;;;;;;;10.23;5.88;;;19.60;99.90;;;;;;4953280;28;20035;-77
2023/07/23 02:03:26;;;;;;;8.68;5.28;;;19.60;99.90;;;;;;4954870;28;20392;-76
2023/07/23 02:06:00;;;;;;;10.20;5.65;;;19.60;99.90;;;;;;4936791;29;20031;-76
2023/07/23 02:08:27;;;;;;;12.88;6.32;;;19.60;99.90;;;;;;4954179;28;20030;-76
2023/07/23 02:11:02;;;;;;;13.00;5.82;;;19.60;99.90;;;;;;4953604;28;20090;-75
2023/07/23 02:13:29;;;;;;;9.10;5.18;;;19.60;99.90;;;;;;4955885;28;20034;-73
2023/07/23 02:15:55;;;;;;;14.10;6.20;;;19.70;99.90;;;;;;4954152;28;20039;-74
2023/07/23 02:18:21;;;;;;;11.60;6.28;;;19.70;99.90;;;;;;4943220;28;20118;-76
2023/07/23 02:20:48;;;;;;;12.55;6.32;;;19.70;99.90;;;;;;4954183;28;20457;-76
2023/07/23 02:23:16;;;;;;;10.15;6.07;;;19.70;99.90;;;;;;4947489;28;20070;-74
2023/07/23 02:25:42;;;;;;;9.32;6.07;;;19.70;99.90;;;;;;4951193;28;20082;-73
2023/07/23 02:28:10;;;;;;;13.30;6.57;;;19.70;99.90;;;;;;4954226;28;20019;-74
2023/07/23 02:30:36;;;;;;;11.43;5.15;;;19.70;99.90;;;;;;4957396;28;20485;-74
2023/07/23 02:33:02;;;;;;;11.27;6.20;;;19.70;99.90;;;;;;4954242;28;20480;-74
2023/07/23 02:35:28;;;;;;;14.35;6.35;;;19.60;99.90;;;;;;4952728;28;20039;-77
2023/07/23 02:37:53;;;;;;;8.88;5.82;;;19.60;99.90;;;;;;4949742;28;20034;-75
2023/07/23 02:40:19;;;;;;;11.95;6.40;;;19.70;99.90;;;;;;4953577;28;20102;-76
2023/07/23 02:42:48;;;;;;;11.63;6.47;;;19.60;99.90;;;;;;4953329;28;20031;-76
2023/07/23 02:45:14;;;;;;;10.77;5.88;;;19.50;99.90;;;;;;4962603;28;20146;-77
2023/07/23 02:47:40;;;;;;;14.45;6.53;;;19.50;99.90;;;;;;4953606;28;20110;-75
2023/07/23 02:50:06;;;;;;;13.00;5.95;;;19.50;99.90;;;;;;4952363;28;20023;-76
2023/07/23 02:52:32;;;;;;;11.88;7.10;;;19.50;99.90;;;;;;4952786;28;20027;-74
2023/07/23 02:54:58;;;;;;;10.73;6.72;;;19.50;99.90;;;;;;4953127;28;20031;-73
2023/07/23 02:57:23;;;;;;;8.82;6.10;;;19.50;99.90;;;;;;4952771;28;20023;-74
2023/07/23 02:59:49;;;;;;;12.90;6.18;;;19.40;99.90;;;;;;4949144;29;20043;-76
2023/07/23 03:02:15;;;;;;;13.88;7.60;;;19.40;99.90;;;;;;4952025;29;20031;-76
2023/07/23 03:04:41;;;;;;;12.13;6.75;;;19.30;99.90;;;;;;4952260;28;20066;-76
2023/07/23 03:07:09;;;;;;;11.38;6.72;;;19.40;99.90;;;;;;4953570;28;20055;-73
2023/07/23 03:09:35;;;;;;;11.40;7.28;;;19.40;99.90;;;;;;4953476;28;20491;-74
2023/07/23 03:12:02;;;;;;;14.65;7.25;;;19.20;99.90;;;;;;4953396;28;20072;-76
2023/07/23 03:14:28;;;;;;;11.20;6.72;;;19.20;99.90;;;;;;4952052;28;20469;-73
2023/07/23 03:16:54;;;;;;;10.55;6.90;;;19.10;99.90;;;;;;4953424;28;20031;-75
2023/07/23 03:19:20;;;;;;;11.48;7.35;;;19.00;99.90;;;;;;4952599;28;20040;-76
2023/07/23 03:21:45;;;;;;;14.07;8.02;;;19.00;99.90;;;;;;4953364;28;20474;-76
2023/07/23 03:24:11;;;;;;;12.45;7.35;;;19.00;99.90;;;;;;4949481;28;20393;-77
2023/07/23 03:26:37;;;;;;;14.30;6.63;;;19.00;99.90;;;;;;4952392;28;20035;-74
2023/07/23 03:29:03;;;;;;;10.93;6.82;;;19.00;99.90;;;;;;4953426;28;20082;-75
2023/07/23 03:31:29;;;;;;;13.77;7.93;;;19.00;99.90;;;;;;4953580;28;20027;-75
2023/07/23 03:33:55;;;;;;;13.75;7.70;;;19.00;99.90;;;;;;4954118;28;20064;-73
2023/07/23 03:36:21;;;;;;;18.30;8.32;;;19.10;99.90;;;;;;4955730;28;20047;-73
2023/07/23 03:38:46;;;;;;;16.38;8.02;;;19.10;99.90;;;;;;4957386;28;20039;-76
2023/07/23 03:41:12;;;;;;;11.38;6.88;;;19.10;99.90;;;;;;4955022;28;20043;-73
2023/07/23 03:43:38;;;;;;;18.90;7.57;;;19.20;99.90;;;;;;4957030;29;20519;-76
2023/07/23 03:46:04;;;;;;;14.13;7.57;;;19.30;99.90;;;;;;4956994;28;20051;-77
2023/07/23 03:48:30;;;;;;;11.38;7.43;;;19.50;99.90;;;;;;4956024;28;20228;-76
2023/07/23 03:50:56;;;;;;;13.48;6.68;;;20.20;99.90;;;;;;4955207;28;20489;-74
2023/07/23 03:53:22;;;;;;;14.35;6.95;;;20.30;99.90;;;;;;4956309;29;20034;-77
2023/07/23 03:55:48;;;;;;;11.70;6.72;;;20.70;99.90;;;;;;4956122;28;20062;-76
2023/07/23 03:58:15;;;;;;;10.15;6.35;;;20.80;99.90;;;;;;4955564;28;20055;-74
2023/07/23 04:00:41;;;;;;;13.02;5.47;;;21.20;99.90;;;;;;4955018;28;20035;-73
2023/07/23 04:03:07;;;;;;;9.90;6.05;;;21.10;99.90;;;;;;4957404;28;20031;-76
2023/07/23 04:05:35;;;;;;;10.43;6.20;;;21.20;99.90;;;;;;4955089;28;20051;-76
2023/07/23 04:08:02;;;;;;;15.77;9.23;;;21.10;99.90;;;;;;4955457;28;20552;-76
2023/07/23 04:10:28;;;;;;;15.45;7.07;;;21.70;99.90;;;;;;4955077;28;20074;-74
2023/07/23 04:12:54;;;;;;;8.77;5.82;;;21.70;99.90;;;;;;4955895;28;20027;-77
2023/07/23 04:15:20;;;;;;;8.68;5.70;;;22.10;99.90;;;;;;4956235;28;20618;-75
2023/07/23 04:17:45;;;;;;;9.70;5.80;;;22.80;99.90;;;;;;4955326;28;20041;-76
2023/07/23 04:20:11;;;;;;;7.43;5.15;;;22.90;99.90;;;;;;4956333;28;20047;-74
2023/07/23 04:22:37;;;;;;;8.70;5.68;;;23.00;99.90;;;;;;4956685;28;20027;-74
2023/07/23 04:25:03;;;;;;;7.75;4.80;;;23.80;99.90;;;;;;4948677;28;20066;-77
2023/07/23 04:27:29;;;;;;;8.55;4.90;;;24.00;99.90;;;;;;4956374;28;20026;-74
2023/07/23 04:29:55;;;;;;;12.07;5.95;;;24.60;99.90;;;;;;4956189;28;20038;-73
2023/07/23 04:32:21;;;;;;;10.15;5.07;;;25.00;99.90;;;;;;4956587;28;20027;-75
2023/07/23 04:34:47;;;;;;;10.70;5.05;;;25.50;99.90;;;;;;4954875;28;20399;-77
2023/07/23 04:37:13;;;;;;;13.38;4.47;;;25.90;99.90;;;;;;4955077;28;20047;-77
2023/07/23 04:39:41;;;;;;;12.98;4.90;;;26.20;99.90;;;;;;4956297;28;20485;-75
2023/07/23 04:42:06;;;;;;;8.88;4.13;;;26.40;99.90;;;;;;4956170;28;20046;-72
2023/07/23 04:44:32;;;;;;;7.13;4.93;;;26.70;99.90;;;;;;4955813;28;20031;-73
2023/07/23 04:46:58;;;;;;;7.50;4.30;;;26.40;99.90;;;;;;4956622;28;20034;-75
2023/07/23 04:49:24;;;;;;;9.00;5.15;;;26.90;99.90;;;;;;4955899;28;20054;-75
2023/07/23 04:51:50;;;;;;;11.25;4.88;;;26.80;99.90;;;;;;4955616;29;20054;-75
2023/07/23 04:54:15;;;;;;;8.95;5.18;;;26.30;99.90;;;;;;4955532;28;20362;-73
2023/07/23 04:56:41;;;;;;;8.43;5.25;;;25.80;99.90;;;;;;4956304;28;20086;-76
2023/07/23 04:59:07;;;;;;;10.13;5.82;;;25.30;99.90;;;;;;4955409;28;20042;-74
2023/07/23 05:01:33;;;;;;;12.40;5.22;;;26.30;99.90;;;;;;4955334;28;20058;-74
2023/07/23 05:03:59;;;;;;;9.35;4.95;;;27.00;99.90;;;;;;4955460;28;20023;-75
2023/07/23 05:06:24;;;;;;;9.73;5.13;;;27.40;99.90;;;;;;4956069;29;20027;-75
2023/07/23 05:08:50;;;;;;;9.45;5.30;;;26.70;99.90;;;;;;4955727;28;20377;-75
2023/07/23 05:11:16;;;;;;;7.95;5.53;;;26.40;99.90;;;;;;4955462;28;20433;-76
2023/07/23 05:13:42;;;;;;;10.15;5.85;;;25.90;99.90;;;;;;4955214;28;20615;-74
2023/07/23 05:16:09;;;;;;;11.35;5.30;;;25.70;99.90;;;;;;4955227;29;20438;-75
2023/07/23 05:18:35;;;;;;;8.93;5.85;;;25.70;99.90;;;;;;4953782;28;20031;-75
2023/07/23 05:21:04;;;;;;;13.07;5.90;;;25.40;99.90;;;;;;4954890;28;20034;-76
2023/07/23 05:23:30;;;;;;;8.88;5.05;;;25.20;99.90;;;;;;4955062;28;20023;-76
2023/07/23 05:25:56;;;;;;;7.55;5.18;;;25.10;99.90;;;;;;4955141;28;20034;-76
2023/07/23 05:28:22;;;;;;;7.82;5.00;;;25.00;99.90;;;;;;4955066;28;20043;-74
2023/07/23 05:30:48;;;;;;;9.68;5.60;;;24.80;99.90;;;;;;4955030;28;20158;-74
2023/07/23 05:33:14;;;;;;;10.00;6.35;;;24.80;99.90;;;;;;4950971;28;20087;-75
2023/07/23 05:35:39;;;;;;;8.70;5.70;;;24.50;99.90;;;;;;4954230;28;20055;-75
2023/07/23 05:38:06;;;;;;;12.50;6.57;;;24.60;99.90;;;;;;4954761;28;20015;-75
2023/07/23 05:40:35;;;;;;;12.43;6.40;;;24.30;99.90;;;;;;4955223;28;20051;-76
2023/07/23 05:43:13;;;;;;;9.73;6.15;;;24.20;99.90;;;;;;4954735;28;20114;-73
2023/07/23 05:45:39;;;;;;;11.55;6.60;;;23.60;99.90;;;;;;4954233;28;20042;-75
2023/07/23 05:48:05;;;;;;;13.25;7.07;;;23.60;99.90;;;;;;4954414;28;20381;-75
2023/07/23 05:50:30;;;;;;;9.35;6.43;;;23.40;99.90;;;;;;4954163;28;20038;-75
2023/07/23 05:52:56;;;;;;;11.90;7.18;;;23.40;99.90;;;;;;4954602;28;20031;-74
2023/07/23 05:55:22;;;;;;;13.65;7.60;;;23.40;99.90;;;;;;4953958;28;20059;-75
2023/07/23 05:57:48;;;;;;;12.23;7.53;;;23.40;99.90;;;;;;4953848;28;20401;-75
2023/07/23 06:00:14;;;;;;;14.50;7.93;;;23.30;99.90;;;;;;4954422;28;20079;-74
2023/07/23 06:02:39;;;;;;;12.57;7.90;;;23.00;99.90;;;;;;4954210;28;20027;-72
2023/07/23 06:05:06;;;;;;;11.90;8.07;;;23.10;99.90;;;;;;4953678;29;20090;-75
2023/07/23 06:07:31;;;;;;;11.88;7.82;;;23.20;99.90;;;;;;4953484;28;20027;-75
2023/07/23 06:09:57;;;;;;;17.23;10.15;;;23.10;99.90;;;;;;4954190;28;20086;-74
2023/07/23 06:12:23;;;;;;;17.60;10.93;;;23.10;99.90;;;;;;4954169;29;20051;-75
2023/07/23 06:14:49;;;;;;;15.27;10.55;;;22.90;99.90;;;;;;4954330;29;20050;-73
2023/07/23 06:17:14;;;;;;;18.25;12.82;;;22.80;99.90;;;;;;4954374;29;20031;-75
2023/07/23 06:19:40;;;;;;;17.13;12.50;;;22.60;99.90;;;;;;4954236;28;20027;-72
2023/07/23 06:22:06;;;;;;;17.10;11.85;;;22.50;99.90;;;;;;4954454;29;20377;-74
2023/07/23 06:24:32;;;;;;;16.65;12.77;;;22.70;99.90;;;;;;4965906;28;20035;-73
2023/07/23 06:26:58;;;;;;;17.70;11.98;;;22.90;99.90;;;;;;4953437;29;20031;-73
2023/07/23 06:29:25;;;;;;;16.58;12.30;;;23.00;99.90;;;;;;4953535;29;20023;-72
2023/07/23 06:31:51;;;;;;;19.60;13.43;;;23.20;99.90;;;;;;4953936;29;20093;-73
2023/07/23 06:34:17;;;;;;;17.50;12.93;;;23.50;99.90;;;;;;4954672;29;20031;-73
2023/07/23 06:36:44;;;;;;;17.85;13.00;;;23.50;99.90;;;;;;4954375;29;20497;-74
2023/07/23 06:39:10;;;;;;;19.02;13.52;;;23.90;99.90;;;;;;4954446;29;20070;-75
2023/07/23 06:41:36;;;;;;;19.33;13.90;;;23.70;99.90;;;;;;4954020;28;20035;-74
2023/07/23 06:44:02;;;;;;;18.33;13.90;;;23.80;99.90;;;;;;4954455;29;20059;-76
2023/07/23 06:46:28;;;;;;;19.58;15.02;;;24.00;99.90;;;;;;4953612;29;20106;-73
2023/07/23 06:48:54;;;;;;;18.45;13.82;;;23.90;99.90;;;;;;4954127;29;20054;-75
2023/07/23 06:51:19;;;;;;;21.80;15.07;;;24.00;99.90;;;;;;4952777;29;20042;-75
2023/07/23 06:53:45;;;;;;;19.50;13.05;;;24.00;99.90;;;;;;4953511;29;20445;-73
2023/07/23 06:56:13;;;;;;;20.20;13.57;;;24.20;99.90;;;;;;4953783;29;20477;-73
2023/07/23 06:58:39;;;;;;;17.25;13.27;;;24.20;99.90;;;;;;4953447;28;20054;-73
2023/07/23 07:01:06;;;;;;;17.80;13.00;;;24.50;99.90;;;;;;4954165;29;20409;-75
2023/07/23 07:03:32;;;;;;;18.17;12.63;;;24.60;99.90;;;;;;4953536;29;20041;-74
2023/07/23 07:05:59;;;;;;;17.23;13.88;;;24.70;99.90;;;;;;4954205;29;20457;-74
2023/07/23 07:08:27;;;;;;;17.45;12.50;;;24.40;99.90;;;;;;4953684;28;20054;-73
2023/07/23 07:10:58;;;;;;;17.95;12.68;;;24.60;99.90;;;;;;4953751;29;20106;-73
2023/07/23 07:13:24;;;;;;;16.90;13.30;;;24.60;99.90;;;;;;4953675;28;20032;-74
2023/07/23 07:15:50;;;;;;;17.92;13.63;;;24.60;99.90;;;;;;4953224;29;20070;-73
2023/07/23 07:18:15;;;;;;;16.02;12.57;;;24.80;99.90;;;;;;4952839;28;20093;-73
2023/07/23 07:20:41;;;;;;;17.98;13.45;;;24.80;99.90;;;;;;4953320;29;20068;-73
2023/07/23 07:23:07;;;;;;;18.67;13.63;;;24.30;99.90;;;;;;4954047;29;20027;-72
2023/07/23 07:25:33;;;;;;;17.98;13.60;;;24.30;99.90;;;;;;4953406;29;20042;-75
2023/07/23 07:27:59;;;;;;;17.60;13.70;;;24.40;99.90;;;;;;4952291;28;20032;-75
2023/07/23 07:30:24;;;;;;;19.17;15.10;;;24.70;99.90;;;;;;4951757;28;20098;-74
2023/07/23 07:32:53;;;;;;;17.63;13.07;;;24.90;99.90;;;;;;4950708;29;20063;-74
2023/07/23 07:35:19;;;;;;;18.05;14.27;;;25.10;99.90;;;;;;4948169;28;20047;-75
2023/07/23 07:37:46;;;;;;;20.52;14.13;;;25.10;99.90;;;;;;4953501;29;20027;-73
2023/07/23 07:40:13;;;;;;;19.05;14.25;;;25.10;99.90;;;;;;4951064;28;20623;-75
2023/07/23 07:42:40;;;;;;;19.67;15.00;;;25.10;99.90;;;;;;4959644;28;20049;-75
2023/07/23 07:45:06;;;;;;;19.48;15.25;;;25.20;99.90;;;;;;4953738;28;20027;-74
2023/07/23 07:47:32;;;;;;;21.60;15.80;;;25.40;99.90;;;;;;4953043;28;20023;-73
2023/07/23 07:49:58;;;;;;;20.38;15.57;;;25.50;99.90;;;;;;4952493;28;20504;-76
2023/07/23 07:52:24;;;;;;;19.33;15.45;;;25.70;99.90;;;;;;4943481;28;20098;-76
2023/07/23 07:54:50;;;;;;;22.92;16.55;;;25.40;99.90;;;;;;4953430;29;20081;-76
2023/07/23 07:57:16;;;;;;;21.27;16.45;;;25.30;99.90;;;;;;4953158;28;20023;-77
2023/07/23 07:59:42;;;;;;;21.73;16.42;;;25.30;99.90;;;;;;4953539;29;20042;-76
2023/07/23 08:02:08;;;;;;;21.58;16.58;;;25.40;99.90;;;;;;4957959;28;20023;-76
2023/07/23 08:04:34;;;;;;;19.95;15.77;;;25.90;99.90;;;;;;4972452;28;20129;-72
2023/07/23 08:07:00;;;;;;;19.45;15.68;;;25.80;99.90;;;;;;4972757;28;20026;-73
2023/07/23 08:09:28;;;;;;;21.17;16.52;;;25.70;99.90;;;;;;4955075;28;20522;-76
2023/07/23 08:11:56;;;;;;;21.15;16.23;;;25.70;99.90;;;;;;4963829;28;20417;-76
2023/07/23 08:14:22;;;;;;;18.90;14.50;;;26.00;99.90;;;;;;4952522;28;20055;-75
2023/07/23 08:16:53;;;;;;;19.83;14.93;;;26.00;99.90;;;;;;4952370;28;20054;-75
2023/07/23 08:19:20;;;;;;;20.10;15.35;;;25.80;99.90;;;;;;4952610;28;20031;-75
2023/07/23 08:21:46;;;;;;;21.85;14.88;;;25.80;99.90;;;;;;4936717;28;20038;-76
2023/07/23 08:24:12;;;;;;;21.45;16.25;;;26.00;99.90;;;;;;4952022;28;20034;-76
2023/07/23 08:26:40;;;;;;;24.52;18.02;;;26.60;99.90;;;;;;4960696;28;20070;-75
2023/07/23 08:29:09;;;;;;;19.75;15.75;;;26.70;99.90;;;;;;4963136;28;20074;-75
2023/07/23 08:31:35;;;;;;;19.23;15.40;;;27.00;99.90;;;;;;4959620;28;20027;-76
2023/07/23 08:34:02;;;;;;;19.63;16.35;;;26.60;99.90;;;;;;4955143;29;20035;-75
2023/07/23 08:36:31;;;;;;;20.15;16.00;;;26.90;99.90;;;;;;4954987;28;20118;-76
2023/07/23 08:38:57;;;;;;;24.05;14.65;;;26.60;99.90;;;;;;4942860;29;20382;-74
2023/07/23 08:41:54;;;;;;;17.85;14.07;;;26.50;99.90;;;;;;4955549;28;20027;-75
2023/07/23 08:44:55;;;;;;;20.42;16.25;;;26.70;99.90;;;;;;4956003;28;20035;-73
2023/07/23 08:47:21;;;;;;;19.65;15.27;;;26.70;99.90;;;;;;4955553;29;20016;-75
2023/07/23 08:49:47;;;;;;;23.30;15.32;;;26.40;99.90;;;;;;4953711;29;20054;-75
2023/07/23 08:52:15;;;;;;;20.90;15.73;;;26.40;99.90;;;;;;4955294;28;20477;-73
2023/07/23 08:54:42;;;;;;;19.42;15.43;;;26.40;99.90;;;;;;4951792;28;20067;-75
2023/07/23 08:57:09;;;;;;;19.42;15.43;;;26.40;99.90;;;;;;4951800;28;20110;-73
2023/07/23 08:59:35;;;;;;;21.00;15.07;;;26.50;99.90;;;;;;4953139;28;20119;-72
2023/07/23 09:02:02;;;;;;;17.92;14.95;;;26.70;99.90;;;;;;4954673;29;20031;-73
2023/07/23 09:04:28;;;;;;;19.80;14.48;;;26.90;99.90;;;;;;4955177;28;20027;-75
2023/07/23 09:06:58;;;;;;;20.50;14.70;;;27.30;99.90;;;;;;4952318;28;20038;-76
2023/07/23 09:09:24;;;;;;;18.50;13.60;;;27.60;99.90;;;;;;4954567;29;20473;-73
2023/07/23 09:11:50;;;;;;;20.15;15.07;;;27.60;99.90;;;;;;4955732;28;20413;-73
2023/07/23 09:14:16;;;;;;;18.42;14.43;;;27.70;99.90;;;;;;4955278;28;20027;-73
2023/07/23 09:16:44;;;;;;;16.63;12.85;;;;;;;;;;4955685;28;20067;-75
2023/07/23 09:19:12;;;;;;;18.10;13.93;;;27.40;99.90;;;;;;4952068;28;20027;-74
2023/07/23 09:21:39;;;;;;;18.70;13.38;;;27.40;99.90;;;;;;4958972;28;20109;-73
2023/07/23 09:24:07;;;;;;;17.23;12.48;;;27.10;99.90;;;;;;4962181;28;20015;-73
2023/07/23 09:26:36;;;;;;;17.48;14.00;;;27.00;99.90;;;;;;4963145;28;20086;-73
2023/07/23 09:29:07;;;;;;;17.05;13.55;;;27.30;99.90;;;;;;4941922;28;20032;-74
2023/07/23 09:31:35;;;;;;;18.63;14.15;;;27.30;99.90;;;;;;4961756;28;20058;-73
2023/07/23 09:34:02;;;;;;;18.55;12.40;;;27.20;99.90;;;;;;4954774;28;20027;-74
2023/07/23 09:36:29;;;;;;;16.48;12.23;;;27.70;99.90;;;;;;4953448;29;20114;-74
2023/07/23 09:38:55;;;;;;;16.52;12.30;;;27.60;99.90;;;;;;4956627;28;20552;-74
2023/07/23 09:41:21;;;;;;;16.73;11.68;;;27.50;99.90;;;;;;4956582;28;20473;-73
2023/07/23 09:43:47;;;;;;;15.85;11.52;;;27.70;99.90;;;;;;4955091;28;20043;-73
2023/07/23 09:46:13;;;;;;;13.85;10.20;;;27.90;99.90;;;;;;4959840;28;20034;-73
2023/07/23 09:48:48;;;;;;;17.67;11.00;;;28.00;99.90;;;;;;4954263;28;20035;-74
2023/07/23 09:51:14;;;;;;;15.32;10.38;;;28.10;99.90;;;;;;4954277;28;20400;-74
2023/07/23 09:53:45;;;;;;;16.88;9.98;;;27.80;99.90;;;;;;4949074;28;20087;-74
2023/07/23 09:56:13;;;;;;;13.23;9.57;;;27.80;99.90;;;;;;4955316;28;20043;-73
2023/07/23 09:58:40;;;;;;;13.68;10.00;;;27.50;99.90;;;;;;4958102;28;20035;-73
2023/07/23 10:01:07;;;;;;;13.10;9.75;;;27.10;99.90;;;;;;4948264;28;20094;-73
2023/07/23 10:03:34;;;;;;;12.45;8.20;;;26.70;99.90;;;;;;4954563;28;20090;-73
2023/07/23 10:06:00;;;;;;;12.05;9.38;;;26.90;99.90;;;;;;4954560;28;20035;-73
2023/07/23 10:08:27;;;;;;;13.40;10.23;;;26.80;99.90;;;;;;4953643;28;20025;-74
2023/07/23 10:10:53;;;;;;;12.45;9.27;;;26.80;99.90;;;;;;4954592;28;20551;-73
2023/07/23 10:13:19;;;;;;;13.85;9.65;;;26.60;99.90;;;;;;4954777;28;20059;-71
2023/07/23 10:15:46;;;;;;;9.25;6.80;;;26.60;99.90;;;;;;4954384;28;20057;-74
2023/07/23 10:18:13;;;;;;;11.15;8.10;;;26.70;99.90;;;;;;4954800;28;20023;-75
2023/07/23 10:20:39;;;;;;;11.82;8.52;;;26.70;99.90;;;;;;4954248;28;20481;-72
2023/07/23 10:23:06;;;;;;;12.95;8.90;;;26.70;99.90;;;;;;4954637;28;20027;-74
2023/07/23 10:25:34;;;;;;;14.18;9.23;;;26.70;99.90;;;;;;4954471;28;20106;-73
2023/07/23 10:28:03;;;;;;;13.52;9.77;;;26.80;99.90;;;;;;4954463;28;20114;-75
2023/07/23 10:30:30;;;;;;;12.35;9.35;;;26.90;99.90;;;;;;4942084;28;20058;-75
2023/07/23 10:33:10;;;;;;;12.18;9.63;;;26.70;99.90;;;;;;4952893;28;20035;-73
2023/07/23 10:35:52;;;;;;;12.32;8.27;;;27.00;99.90;;;;;;4954171;28;20378;-74
2023/07/23 10:38:27;;;;;;;13.25;9.90;;;27.10;99.90;;;;;;4954192;28;20027;-74
2023/07/23 10:40:54;;;;;;;17.33;9.52;;;27.30;99.90;;;;;;4947811;28;20054;-75
2023/07/23 10:43:20;;;;;;;11.25;8.77;;;27.40;99.90;;;;;;4958841;28;20443;-73
2023/07/23 10:46:03;;;;;;;12.45;9.23;;;27.20;99.90;;;;;;4962373;28;20035;-74
2023/07/23 10:48:38;;;;;;;14.65;10.15;;;27.00;99.90;;;;;;4954059;28;20031;-73
2023/07/23 10:51:11;;;;;;;14.05;10.32;;;26.80;99.90;;;;;;4954098;28;20027;-75
2023/07/23 10:53:54;;;;;;;14.50;9.93;;;27.00;99.90;;;;;;4953861;28;20473;-74
2023/07/23 10:56:35;;;;;;;11.60;8.27;;;27.00;99.90;;;;;;4953780;28;20050;-74
2023/07/23 10:59:07;;;;;;;12.23;8.35;;;27.10;99.90;;;;;;4954113;28;20147;-73
2023/07/23 11:01:38;;;;;;;12.05;8.60;;;26.90;99.90;;;;;;4953837;28;21044;-75
2023/07/23 11:04:10;;;;;;;12.00;8.47;;;27.00;99.90;;;;;;4954057;28;20032;-75
2023/07/23 11:06:40;;;;;;;10.95;8.60;;;27.00;99.90;;;;;;4953918;28;20747;-74
2023/07/23 11:09:13;;;;;;;11.63;8.77;;;27.20;99.90;;;;;;4953614;28;20056;-73
2023/07/23 11:11:40;;;;;;;10.95;8.77;;;27.10;99.90;;;;;;4953906;28;20055;-74
2023/07/23 11:14:17;;;;;;;12.35;9.55;;;27.20;99.90;;;;;;4953514;28;20175;-73
2023/07/23 11:16:44;;;;;;;12.05;9.15;;;27.40;99.90;;;;;;4953622;28;20090;-75
2023/07/23 11:19:10;;;;;;;10.88;8.07;;;27.00;99.90;;;;;;4953715;28;20556;-76
2023/07/23 11:21:47;;;;;;;10.23;7.65;;;27.10;99.90;;;;;;4953439;28;20118;-73
2023/07/23 11:24:12;;;;;;;16.90;9.32;;;27.10;99.90;;;;;;4953790;28;20474;-75
2023/07/23 11:26:40;;;;;;;12.23;9.30;;;27.30;99.90;;;;;;4953463;28;20029;-74
2023/07/23 11:29:06;;;;;;;10.23;7.55;;;27.50;99.90;;;;;;4953776;28;20035;-74
2023/07/23 11:31:37;;;;;;;9.57;7.53;;;27.20;99.90;;;;;;4953361;28;20406;-73
2023/07/23 11:34:03;;;;;;;10.63;7.63;;;27.50;99.90;;;;;;4952478;28;20090;-74
2023/07/23 11:36:29;;;;;;;10.70;7.95;;;27.30;99.90;;;;;;4954040;28;20519;-75
2023/07/23 11:38:56;;;;;;;11.65;7.15;;;27.00;99.90;;;;;;4953623;28;20446;-75
2023/07/23 11:41:39;;;;;;;11.68;7.88;;;27.00;99.90;;;;;;4953825;28;20055;-74
2023/07/23 11:44:06;;;;;;;8.75;6.35;;;27.00;99.90;;;;;;4953319;28;20370;-73
2023/07/23 11:46:34;;;;;;;8.27;6.43;;;27.10;99.90;;;;;;4953666;28;20031;-75
2023/07/23 11:49:01;;;;;;;6.60;5.32;;;27.30;99.90;;;;;;4953506;28;20027;-74
2023/07/23 11:51:28;;;;;;;8.13;5.60;;;26.80;99.90;;;;;;4953483;28;20074;-74
2023/07/23 11:54:07;;;;;;;7.05;5.55;;;27.00;99.90;;;;;;4953625;28;20090;-76
2023/07/23 11:56:38;;;;;;;8.15;6.10;;;27.10;99.90;;;;;;4945326;28;20152;-76
2023/07/23 11:59:06;;;;;;;10.30;6.33;;;27.20;99.90;;;;;;4957084;28;20032;-76
2023/07/23 12:01:35;;;;;;;8.48;5.63;;;27.40;99.90;;;;;;4957068;28;20253;-73
2023/07/23 12:04:03;;;;;;;9.38;6.32;;;27.60;99.90;;;;;;4956786;28;20050;-76
2023/07/23 12:06:36;;;;;;;7.13;5.68;;;27.80;99.90;;;;;;4940383;28;20481;-75
2023/07/23 12:09:10;;;;;;;7.50;5.90;;;28.00;99.90;;;;;;4956808;28;20489;-74
2023/07/23 12:11:42;;;;;;;7.22;5.28;;;27.90;99.90;;;;;;4956927;28;20055;-75
2023/07/23 12:14:08;;;;;;;8.88;5.25;;;27.40;99.90;;;;;;4955001;29;20440;-74
2023/07/23 12:16:49;;;;;;;7.53;5.40;;;26.90;99.90;;;;;;4956682;28;20063;-76
2023/07/23 12:19:24;;;;;;;6.82;5.13;;;27.10;99.90;;;;;;4956953;28;20110;-74
2023/07/23 12:21:54;;;;;;;8.77;5.13;;;27.30;99.90;;;;;;4949239;28;20039;-73
2023/07/23 12:24:28;;;;;;;6.43;4.85;;;27.40;99.90;;;;;;4956730;28;20043;-74
2023/07/23 12:26:56;;;;;;;7.97;5.28;;;27.00;99.90;;;;;;4956605;28;20031;-74
2023/07/23 12:29:25;;;;;;;7.53;5.13;;;27.50;99.90;;;;;;4956361;28;20412;-77
2023/07/23 12:32:12;;;;;;;5.13;4.35;;;27.70;99.90;;;;;;4956564;28;20031;-76
2023/07/23 12:34:43;;;;;;;9.32;4.65;;;27.70;99.90;;;;;;4956236;28;20059;-74
2023/07/23 12:37:09;;;;;;;8.30;5.50;;;27.70;99.90;;;;;;4956499;28;20050;-73